Aniak, Alaska
Current Conditions -  °F | °C
As of 9:56 AM on Friday 24 Oct 2014 (Local Time) from PANI Reporting Station
Overcast Overcast  
Wind Chill: 21°   Ceiling: 300
Heat Index: 28°   Visibility: 3mi
Dew Point: 27°   Wind: 7mph
Humidity: 93%   Direction: 250°WSW
Pressure: 29.95"   Gusts: NA
Location:  61.58°N, 159.54°W
Report Text: PANI 241756Z AUTO 25006KT 3SM OVC003 M02/M03 A2995 RMK AO1 60001 10010 21030 52017
Loading
Personal Weather Stations






























Interactive Weather Map
Tropical Storm Tracking
New forecast layout! Learn more

10-Day Weather Forecast

Advertisements
Track Severe Weather on mobile